sensor_id;sensor_type;location;lat;lon;timestamp;temperature;humidity
46331;DHT22;32049;52.346;4.870;2022-08-01T05:58:26;18.80;99.90
46331;DHT22;32049;52.346;4.870;2022-08-01T06:01:18;18.70;99.90
46331;DHT22;32049;52.346;4.870;2022-08-01T06:04:13;18.60;99.90
46331;DHT22;32049;52.346;4.870;2022-08-01T06:07:08;18.70;99.90
46331;DHT22;32049;52.346;4.870;2022-08-01T06:09:56;18.90;99.90
46331;DHT22;32049;52.346;4.870;2022-08-01T06:12:44;18.90;99.90
46331;DHT22;32049;52.346;4.870;2022-08-01T06:15:35;19.10;99.90
46331;DHT22;32049;52.346;4.870;2022-08-01T06:18:39;19.10;99.90
46331;DHT22;32049;52.346;4.870;2022-08-01T06:21:30;19.30;99.90
46331;DHT22;32049;52.346;4.870;2022-08-01T06:24:18;19.40;99.90
46331;DHT22;32049;52.346;4.870;2022-08-01T06:27:07;19.60;99.90
46331;DHT22;32049;52.346;4.870;2022-08-01T06:30:11;19.80;99.90
46331;DHT22;32049;52.346;4.870;2022-08-01T06:32:58;19.60;99.90
46331;DHT22;32049;52.346;4.870;2022-08-01T06:35:49;19.60;99.90
46331;DHT22;32049;52.346;4.870;2022-08-01T06:38:37;19.60;99.90
46331;DHT22;32049;52.346;4.870;2022-08-01T06:41:26;19.60;99.90
46331;DHT22;32049;52.346;4.870;2022-08-01T06:44:14;19.60;99.90
46331;DHT22;32049;52.346;4.870;2022-08-01T06:47:05;19.90;99.90
46331;DHT22;32049;52.346;4.870;2022-08-01T06:49:52;19.90;99.90
46331;DHT22;32049;52.346;4.870;2022-08-01T06:52:41;19.70;99.90
46331;DHT22;32049;52.346;4.870;2022-08-01T06:55:29;19.90;99.90
46331;DHT22;32049;52.346;4.870;2022-08-01T06:58:17;19.50;99.90
46331;DHT22;32049;52.346;4.870;2022-08-01T07:01:06;19.40;99.90
46331;DHT22;32049;52.346;4.870;2022-08-01T07:03:54;19.60;99.90
46331;DHT22;32049;52.346;4.870;2022-08-01T07:06:42;19.40;99.90
46331;DHT22;32049;52.346;4.870;2022-08-01T07:09:31;19.60;99.90
46331;DHT22;32049;52.346;4.870;2022-08-01T07:12:22;19.70;99.90
46331;DHT22;32049;52.346;4.870;2022-08-01T07:15:10;19.60;99.90
46331;DHT22;32049;52.346;4.870;2022-08-01T07:18:03;19.60;99.90
46331;DHT22;32049;52.346;4.870;2022-08-01T07:20:52;19.50;99.90
46331;DHT22;32049;52.346;4.870;2022-08-01T07:23:39;19.40;99.90
46331;DHT22;32049;52.346;4.870;2022-08-01T07:26:33;19.40;99.90
46331;DHT22;32049;52.346;4.870;2022-08-01T07:29:22;19.60;99.90
46331;DHT22;32049;52.346;4.870;2022-08-01T07:32:10;19.70;99.90
46331;DHT22;32049;52.346;4.870;2022-08-01T07:34:59;19.90;99.90
46331;DHT22;32049;52.346;4.870;2022-08-01T07:37:47;20.00;99.90
46331;DHT22;32049;52.346;4.870;2022-08-01T07:40:35;20.20;99.90
46331;DHT22;32049;52.346;4.870;2022-08-01T07:43:24;20.70;99.90
46331;DHT22;32049;52.346;4.870;2022-08-01T07:46:11;20.70;99.90
46331;DHT22;32049;52.346;4.870;2022-08-01T07:48:59;20.70;99.90
46331;DHT22;32049;52.346;4.870;2022-08-01T07:51:47;20.60;99.90
46331;DHT22;32049;52.346;4.870;2022-08-01T07:54:50;20.70;99.90
46331;DHT22;32049;52.346;4.870;2022-08-01T07:57:38;20.40;99.90
46331;DHT22;32049;52.346;4.870;2022-08-01T08:00:27;20.30;99.90
46331;DHT22;32049;52.346;4.870;2022-08-01T08:03:18;20.50;99.90
46331;DHT22;32049;52.346;4.870;2022-08-01T08:06:11;20.70;99.90
46331;DHT22;32049;52.346;4.870;2022-08-01T08:09:01;21.00;99.90
46331;DHT22;32049;52.346;4.870;2022-08-01T08:11:49;20.90;99.90
46331;DHT22;32049;52.346;4.870;2022-08-01T08:14:40;20.60;99.90
46331;DHT22;32049;52.346;4.870;2022-08-01T08:17:28;20.80;99.90
46331;DHT22;32049;52.346;4.870;2022-08-01T08:20:22;21.20;99.90
46331;DHT22;32049;52.346;4.870;2022-08-01T08:23:19;21.20;99.90
46331;DHT22;32049;52.346;4.870;2022-08-01T08:26:29;20.90;99.90
46331;DHT22;32049;52.346;4.870;2022-08-01T08:29:21;21.30;99.90
46331;DHT22;32049;52.346;4.870;2022-08-01T08:32:18;21.70;99.90
46331;DHT22;32049;52.346;4.870;2022-08-01T08:35:07;21.70;99.90
46331;DHT22;32049;52.346;4.870;2022-08-01T08:38:05;21.50;99.90
46331;DHT22;32049;52.346;4.870;2022-08-01T08:40:57;21.40;99.90
46331;DHT22;32049;52.346;4.870;2022-08-01T08:43:59;21.20;99.90
46331;DHT22;32049;52.346;4.870;2022-08-01T08:46:51;21.40;99.90
46331;DHT22;32049;52.346;4.870;2022-08-01T08:49:42;21.50;99.90
46331;DHT22;32049;52.346;4.870;2022-08-01T08:52:38;21.70;99.90
46331;DHT22;32049;52.346;4.870;2022-08-01T08:55:27;22.10;99.90
46331;DHT22;32049;52.346;4.870;2022-08-01T14:26:17;24.60;95.60
46331;DHT22;32049;52.346;4.870;2022-08-01T14:29:06;24.90;94.90
46331;DHT22;32049;52.346;4.870;2022-08-01T14:31:59;25.00;95.10
46331;DHT22;32049;52.346;4.870;2022-08-01T14:34:50;24.50;94.90
46331;DHT22;32049;52.346;4.870;2022-08-01T14:37:37;24.90;95.30
46331;DHT22;32049;52.346;4.870;2022-08-01T14:40:31;24.90;94.70
46331;DHT22;32049;52.346;4.870;2022-08-01T14:43:20;25.00;94.90
46331;DHT22;32049;52.346;4.870;2022-08-01T14:46:20;25.30;94.60
46331;DHT22;32049;52.346;4.870;2022-08-01T14:49:10;25.30;94.60
46331;DHT22;32049;52.346;4.870;2022-08-01T14:51:58;25.20;93.70
46331;DHT22;32049;52.346;4.870;2022-08-01T14:54:47;24.80;94.00
46331;DHT22;32049;52.346;4.870;2022-08-01T14:57:37;24.90;94.40
46331;DHT22;32049;52.346;4.870;2022-08-01T15:00:26;24.60;94.10
46331;DHT22;32049;52.346;4.870;2022-08-01T15:03:13;24.60;94.30
46331;DHT22;32049;52.346;4.870;2022-08-01T15:06:01;24.90;93.90
46331;DHT22;32049;52.346;4.870;2022-08-01T15:08:49;25.00;93.30
46331;DHT22;32049;52.346;4.870;2022-08-01T15:11:39;24.90;93.90
46331;DHT22;32049;52.346;4.870;2022-08-01T15:14:27;24.90;93.30
46331;DHT22;32049;52.346;4.870;2022-08-01T15:17:34;24.70;93.10
46331;DHT22;32049;52.346;4.870;2022-08-01T15:20:22;25.00;94.50
46331;DHT22;32049;52.346;4.870;2022-08-01T15:23:10;25.00;93.80
46331;DHT22;32049;52.346;4.870;2022-08-01T15:26:00;24.80;93.90
46331;DHT22;32049;52.346;4.870;2022-08-01T15:28:53;25.20;94.20
46331;DHT22;32049;52.346;4.870;2022-08-01T15:31:44;24.80;92.90
46331;DHT22;32049;52.346;4.870;2022-08-01T15:34:34;24.70;93.50
46331;DHT22;32049;52.346;4.870;2022-08-01T15:37:25;24.70;93.60
46331;DHT22;32049;52.346;4.870;2022-08-01T15:40:13;24.80;94.10
46331;DHT22;32049;52.346;4.870;2022-08-01T15:43:07;24.50;93.70
46331;DHT22;32049;52.346;4.870;2022-08-01T15:46:04;24.50;93.90
46331;DHT22;32049;52.346;4.870;2022-08-01T15:48:52;24.60;94.00
46331;DHT22;32049;52.346;4.870;2022-08-01T15:51:43;24.60;95.30
46331;DHT22;32049;52.346;4.870;2022-08-01T15:54:32;24.30;96.90
46331;DHT22;32049;52.346;4.870;2022-08-01T15:57:36;24.40;96.10
46331;DHT22;32049;52.346;4.870;2022-08-01T16:00:26;24.40;95.80
46331;DHT22;32049;52.346;4.870;2022-08-01T16:03:26;24.20;95.80
46331;DHT22;32049;52.346;4.870;2022-08-01T16:06:15;24.10;95.60
46331;DHT22;32049;52.346;4.870;2022-08-01T16:09:04;24.10;95.80
46331;DHT22;32049;52.346;4.870;2022-08-01T16:11:52;24.10;95.00
46331;DHT22;32049;52.346;4.870;2022-08-01T16:14:39;23.90;95.80
46331;DHT22;32049;52.346;4.870;2022-08-01T16:17:27;23.30;98.20
46331;DHT22;32049;52.346;4.870;2022-08-01T16:20:16;23.40;97.70
46331;DHT22;32049;52.346;4.870;2022-08-01T16:23:04;23.20;98.50
46331;DHT22;32049;52.346;4.870;2022-08-01T16:25:59;22.80;99.20
46331;DHT22;32049;52.346;4.870;2022-08-01T16:28:49;22.60;99.80
46331;DHT22;32049;52.346;4.870;2022-08-01T16:31:42;22.70;99.80
46331;DHT22;32049;52.346;4.870;2022-08-01T16:34:49;22.40;99.90
46331;DHT22;32049;52.346;4.870;2022-08-01T16:37:40;22.80;99.90
46331;DHT22;32049;52.346;4.870;2022-08-01T16:40:29;22.80;99.90
46331;DHT22;32049;52.346;4.870;2022-08-01T16:43:21;22.70;99.90
46331;DHT22;32049;52.346;4.870;2022-08-01T16:46:17;22.40;99.90
46331;DHT22;32049;52.346;4.870;2022-08-01T16:49:06;22.30;99.90
46331;DHT22;32049;52.346;4.870;2022-08-01T16:51:55;22.10;99.90
46331;DHT22;32049;52.346;4.870;2022-08-01T16:54:42;22.30;99.90
46331;DHT22;32049;52.346;4.870;2022-08-01T16:57:30;22.10;99.90
46331;DHT22;32049;52.346;4.870;2022-08-01T17:00:23;22.10;99.90
46331;DHT22;32049;52.346;4.870;2022-08-01T17:03:15;22.50;99.90
46331;DHT22;32049;52.346;4.870;2022-08-01T17:06:03;22.30;99.90
46331;DHT22;32049;52.346;4.870;2022-08-01T17:08:55;22.30;99.90
46331;DHT22;32049;52.346;4.870;2022-08-01T17:11:45;22.30;99.90
46331;DHT22;32049;52.346;4.870;2022-08-01T17:14:33;22.30;99.90
46331;DHT22;32049;52.346;4.870;2022-08-01T17:17:21;22.30;99.90
46331;DHT22;32049;52.346;4.870;2022-08-01T17:20:14;22.00;99.90
46331;DHT22;32049;52.346;4.870;2022-08-01T17:23:03;22.00;99.90
46331;DHT22;32049;52.346;4.870;2022-08-01T17:25:59;21.90;99.90
46331;DHT22;32049;52.346;4.870;2022-08-01T17:28:47;21.90;99.90
46331;DHT22;32049;52.346;4.870;2022-08-01T17:31:35;22.30;99.90
46331;DHT22;32049;52.346;4.870;2022-08-01T17:34:22;22.30;99.90
46331;DHT22;32049;52.346;4.870;2022-08-01T17:37:13;22.10;99.90
46331;DHT22;32049;52.346;4.870;2022-08-01T17:40:01;22.00;99.90
46331;DHT22;32049;52.346;4.870;2022-08-01T17:43:09;22.00;99.90
46331;DHT22;32049;52.346;4.870;2022-08-01T17:45:59;22.20;99.90
46331;DHT22;32049;52.346;4.870;2022-08-01T17:48:52;22.30;99.90
46331;DHT22;32049;52.346;4.870;2022-08-01T17:51:40;22.10;99.90
46331;DHT22;32049;52.346;4.870;2022-08-01T17:54:27;22.10;99.90
46331;DHT22;32049;52.346;4.870;2022-08-01T17:57:15;21.70;99.90
46331;DHT22;32049;52.346;4.870;2022-08-01T18:00:05;21.80;99.90
46331;DHT22;32049;52.346;4.870;2022-08-01T18:02:55;21.80;99.90
46331;DHT22;32049;52.346;4.870;2022-08-01T18:05:43;21.70;99.90
46331;DHT22;32049;52.346;4.870;2022-08-01T18:08:31;21.60;99.90
46331;DHT22;32049;52.346;4.870;2022-08-01T18:11:19;21.10;99.90
46331;DHT22;32049;52.346;4.870;2022-08-01T18:14:10;21.00;99.90
46331;DHT22;32049;52.346;4.870;2022-08-01T18:24:38;21.30;99.90
46331;DHT22;32049;52.346;4.870;2022-08-01T18:27:27;21.00;99.90
46331;DHT22;32049;52.346;4.870;2022-08-01T18:30:34;21.10;99.90
46331;DHT22;32049;52.346;4.870;2022-08-01T18:33:22;21.40;99.90
46331;DHT22;32049;52.346;4.870;2022-08-01T18:36:11;21.30;99.90
46331;DHT22;32049;52.346;4.870;2022-08-01T18:39:18;20.90;99.90
46331;DHT22;32049;52.346;4.870;2022-08-01T18:42:06;20.80;99.90
46331;DHT22;32049;52.346;4.870;2022-08-01T18:44:53;20.90;99.90
46331;DHT22;32049;52.346;4.870;2022-08-01T18:47:41;20.60;99.90
46331;DHT22;32049;52.346;4.870;2022-08-01T18:50:29;20.50;99.90
46331;DHT22;32049;52.346;4.870;2022-08-01T18:53:16;20.50;99.90
46331;DHT22;32049;52.346;4.870;2022-08-01T19:02:11;20.50;99.90
46331;DHT22;32049;52.346;4.870;2022-08-01T19:04:59;20.30;99.90
46331;DHT22;32049;52.346;4.870;2022-08-01T19:07:46;20.20;99.90
46331;DHT22;32049;52.346;4.870;2022-08-01T19:10:53;20.20;99.90
46331;DHT22;32049;52.346;4.870;2022-08-01T19:13:41;20.00;99.90
46331;DHT22;32049;52.346;4.870;2022-08-01T19:16:29;20.20;99.90
46331;DHT22;32049;52.346;4.870;2022-08-01T19:19:16;20.20;99.90
46331;DHT22;32049;52.346;4.870;2022-08-01T19:22:14;20.40;99.90
46331;DHT22;32049;52.346;4.870;2022-08-01T19:25:03;20.20;99.90
46331;DHT22;32049;52.346;4.870;2022-08-01T19:27:50;20.10;99.90
46331;DHT22;32049;52.346;4.870;2022-08-01T19:30:38;20.10;99.90
46331;DHT22;32049;52.346;4.870;2022-08-01T19:33:29;20.00;99.90
46331;DHT22;32049;52.346;4.870;2022-08-01T19:36:18;19.80;99.90
46331;DHT22;32049;52.346;4.870;2022-08-01T19:39:08;19.80;99.90
46331;DHT22;32049;52.346;4.870;2022-08-01T19:41:57;20.00;99.90
46331;DHT22;32049;52.346;4.870;2022-08-01T19:44:45;19.90;99.90
46331;DHT22;32049;52.346;4.870;2022-08-01T19:47:34;19.70;99.90
46331;DHT22;32049;52.346;4.870;2022-08-01T19:50:43;19.70;99.90
46331;DHT22;32049;52.346;4.870;2022-08-01T19:53:37;19.50;99.90
46331;DHT22;32049;52.346;4.870;2022-08-01T19:56:26;19.50;99.90
46331;DHT22;32049;52.346;4.870;2022-08-01T19:59:22;19.40;99.90
46331;DHT22;32049;52.346;4.870;2022-08-01T20:02:09;19.50;99.90
46331;DHT22;32049;52.346;4.870;2022-08-01T20:05:01;19.60;99.90
46331;DHT22;32049;52.346;4.870;2022-08-01T20:07:49;19.40;99.90
46331;DHT22;32049;52.346;4.870;2022-08-01T20:10:37;19.40;99.90
46331;DHT22;32049;52.346;4.870;2022-08-01T20:13:26;19.30;99.90
46331;DHT22;32049;52.346;4.870;2022-08-01T20:16:27;19.30;99.90
46331;DHT22;32049;52.346;4.870;2022-08-01T20:19:17;19.20;99.90
46331;DHT22;32049;52.346;4.870;2022-08-01T20:22:06;19.20;99.90
46331;DHT22;32049;52.346;4.870;2022-08-01T20:24:57;19.20;99.90
46331;DHT22;32049;52.346;4.870;2022-08-01T20:27:45;19.20;99.90
46331;DHT22;32049;52.346;4.870;2022-08-01T20:30:33;19.10;99.90
46331;DHT22;32049;52.346;4.870;2022-08-01T20:33:21;19.00;99.90
46331;DHT22;32049;52.346;4.870;2022-08-01T20:36:09;19.10;99.90
46331;DHT22;32049;52.346;4.870;2022-08-01T20:39:12;18.90;99.90
46331;DHT22;32049;52.346;4.870;2022-08-01T20:42:02;18.90;99.90
46331;DHT22;32049;52.346;4.870;2022-08-01T20:44:51;18.90;99.90
46331;DHT22;32049;52.346;4.870;2022-08-01T20:47:39;18.90;99.90
46331;DHT22;32049;52.346;4.870;2022-08-01T20:50:27;18.90;99.90
46331;DHT22;32049;52.346;4.870;2022-08-01T20:53:43;18.90;99.90
46331;DHT22;32049;52.346;4.870;2022-08-01T20:56:37;18.80;99.90
46331;DHT22;32049;52.346;4.870;2022-08-01T20:59:53;18.70;99.90
46331;DHT22;32049;52.346;4.870;2022-08-01T21:03:00;18.70;99.90
46331;DHT22;32049;52.346;4.870;2022-08-01T21:05:59;18.70;99.90
46331;DHT22;32049;52.346;4.870;2022-08-01T21:08:52;18.70;99.90
46331;DHT22;32049;52.346;4.870;2022-08-01T21:18:12;18.50;99.90
46331;DHT22;32049;52.346;4.870;2022-08-01T21:21:02;18.50;99.90
46331;DHT22;32049;52.346;4.870;2022-08-01T21:23:59;18.60;99.90
46331;DHT22;32049;52.346;4.870;2022-08-01T21:26:50;18.50;99.90
46331;DHT22;32049;52.346;4.870;2022-08-01T21:29:40;18.50;99.90
46331;DHT22;32049;52.346;4.870;2022-08-01T21:32:29;18.50;99.90
46331;DHT22;32049;52.346;4.870;2022-08-01T21:35:21;18.50;99.90
46331;DHT22;32049;52.346;4.870;2022-08-01T21:38:09;18.50;99.90
46331;DHT22;32049;52.346;4.870;2022-08-01T21:44:27;18.40;99.90
46331;DHT22;32049;52.346;4.870;2022-08-01T21:47:16;18.40;99.90
46331;DHT22;32049;52.346;4.870;2022-08-01T21:50:05;18.30;99.90
46331;DHT22;32049;52.346;4.870;2022-08-01T21:53:20;18.30;99.90
46331;DHT22;32049;52.346;4.870;2022-08-01T22:06:03;18.30;99.90
46331;DHT22;32049;52.346;4.870;2022-08-01T22:08:52;18.20;99.90
46331;DHT22;32049;52.346;4.870;2022-08-01T22:11:41;18.20;99.90
46331;DHT22;32049;52.346;4.870;2022-08-01T22:14:48;18.20;99.90
46331;DHT22;32049;52.346;4.870;2022-08-01T22:17:39;18.20;99.90
46331;DHT22;32049;52.346;4.870;2022-08-01T22:20:27;18.10;99.90
46331;DHT22;32049;52.346;4.870;2022-08-01T22:23:15;18.20;99.90
46331;DHT22;32049;52.346;4.870;2022-08-01T22:26:08;18.20;99.90
46331;DHT22;32049;52.346;4.870;2022-08-01T22:28:56;18.20;99.90
46331;DHT22;32049;52.346;4.870;2022-08-01T22:31:46;18.00;99.90
46331;DHT22;32049;52.346;4.870;2022-08-01T22:34:34;18.10;99.90
46331;DHT22;32049;52.346;4.870;2022-08-01T22:37:21;18.10;99.90
46331;DHT22;32049;52.346;4.870;2022-08-01T22:52:48;18.10;99.90
46331;DHT22;32049;52.346;4.870;2022-08-01T22:55:46;18.00;99.90
46331;DHT22;32049;52.346;4.870;2022-08-01T22:58:46;18.00;99.90
46331;DHT22;32049;52.346;4.870;2022-08-01T23:02:00;17.90;99.90
46331;DHT22;32049;52.346;4.870;2022-08-01T23:04:56;18.10;99.90
46331;DHT22;32049;52.346;4.870;2022-08-01T23:07:52;18.00;99.90
46331;DHT22;32049;52.346;4.870;2022-08-01T23:10:41;18.00;99.90
46331;DHT22;32049;52.346;4.870;2022-08-01T23:13:31;17.90;99.90
46331;DHT22;32049;52.346;4.870;2022-08-01T23:16:19;17.80;99.90
46331;DHT22;32049;52.346;4.870;2022-08-01T23:25:59;17.70;99.90
46331;DHT22;32049;52.346;4.870;2022-08-01T23:29:04;17.60;99.90
46331;DHT22;32049;52.346;4.870;2022-08-01T23:31:54;17.80;99.90
46331;DHT22;32049;52.346;4.870;2022-08-01T23:34:57;17.70;99.90
46331;DHT22;32049;52.346;4.870;2022-08-01T23:37:50;17.80;99.90
46331;DHT22;32049;52.346;4.870;2022-08-01T23:40:38;17.80;99.90
46331;DHT22;32049;52.346;4.870;2022-08-01T23:43:36;17.70;99.90
46331;DHT22;32049;52.346;4.870;2022-08-01T23:46:38;17.70;99.90
46331;DHT22;32049;52.346;4.870;2022-08-01T23:49:26;17.80;99.90
46331;DHT22;32049;52.346;4.870;2022-08-01T23:52:14;17.80;99.90
46331;DHT22;32049;52.346;4.870;2022-08-01T23:55:15;17.60;99.90
46331;DHT22;32049;52.346;4.870;2022-08-01T23:58:16;17.50;99.90
